Time;durP1;ratioP1;P1;durP2;ratioP2;P2;SDS_P1;SDS_P2;PMS_P1;PMS_P2;Temp;Humidity;BMP_temperature;BMP_pressure;BME280_temperature;BME280_humidity;BME280_pressure;Samples;Min_cycle;Max_cycle;Signal;HPM_P1;HPM_P2
2023/04/15 00:02:12;;;;;;;9.02;5.60;;;;;;;-143.48;60.20;118439.88;5053426;28;20096;-71
2023/04/15 00:04:38;;;;;;;13.32;5.63;;;;;;;-143.48;60.11;118439.88;5054144;28;20060;-71
2023/04/15 00:07:03;;;;;;;10.98;5.30;;;;;;;-143.48;60.10;118439.88;5035683;28;20500;-71
2023/04/15 00:09:28;;;;;;;11.25;5.78;;;;;;;-143.48;59.48;118439.88;5034510;28;20033;-72
2023/04/15 00:11:53;;;;;;;15.57;5.95;;;;;;;-143.48;60.24;118439.88;5053357;28;20021;-71
2023/04/15 00:14:19;;;;;;;12.65;5.70;;;;;;;-143.48;59.79;118439.88;5035405;28;20025;-71
2023/04/15 00:16:45;;;;;;;12.23;5.68;;;;;;;-143.48;59.86;118439.88;5053130;28;20021;-71
2023/04/15 00:19:10;;;;;;;9.98;6.05;;;;;;;-143.48;60.74;118439.88;5052938;28;20392;-71
2023/04/15 00:21:35;;;;;;;9.82;5.70;;;;;;;-143.48;60.14;118439.88;5052985;28;20036;-71
2023/04/15 00:24:01;;;;;;;10.32;5.70;;;;;;;-143.48;60.28;118439.88;5053034;28;20112;-72
2023/04/15 00:26:26;;;;;;;11.23;5.30;;;;;;;-143.48;60.56;118439.88;5053447;28;20021;-72
2023/04/15 00:28:52;;;;;;;13.05;6.35;;;;;;;-143.48;59.91;118439.88;5053709;28;20031;-71
2023/04/15 00:31:18;;;;;;;10.13;5.35;;;;;;;-143.48;60.46;118439.88;5053334;28;20053;-71
2023/04/15 00:33:43;;;;;;;10.50;5.40;;;;;;;-143.48;61.01;118439.88;5053406;28;20033;-71
2023/04/15 00:36:10;;;;;;;10.48;5.57;;;;;;;-143.48;61.15;118439.88;5053115;28;20022;-71
2023/04/15 00:38:37;;;;;;;10.30;5.28;;;;;;;-143.48;62.10;118439.88;5035329;28;20025;-71
2023/04/15 00:41:02;;;;;;;17.02;5.70;;;;;;;-143.48;61.79;118439.88;5035987;28;20029;-72
2023/04/15 00:43:28;;;;;;;13.85;5.90;;;;;;;-143.48;62.23;118439.88;5052669;28;20041;-72
2023/04/15 00:45:57;;;;;;;12.27;5.57;;;;;;;-143.48;62.34;118439.88;5053147;28;20136;-72
2023/04/15 00:48:23;;;;;;;9.70;5.60;;;;;;;-143.48;61.02;118439.88;5052934;28;20033;-72
2023/04/15 00:50:48;;;;;;;11.13;5.57;;;;;;;-143.48;60.97;118439.88;5037801;28;20029;-71
2023/04/15 00:53:14;;;;;;;12.23;5.80;;;;;;;-143.48;61.21;118439.88;5053322;28;20033;-72
2023/04/15 00:55:39;;;;;;;12.85;6.25;;;;;;;-143.48;61.57;118439.88;5035077;28;20032;-72
2023/04/15 00:58:05;;;;;;;12.68;5.78;;;;;;;-143.48;61.77;118439.88;5052852;28;20020;-72
2023/04/15 01:00:30;;;;;;;11.23;5.93;;;;;;;-143.48;63.21;118439.88;5052537;28;20092;-72
2023/04/15 01:02:55;;;;;;;8.88;5.22;;;;;;;-143.48;62.74;118439.88;5033851;28;20025;-71
2023/04/15 01:05:21;;;;;;;11.43;5.57;;;;;;;-143.48;63.72;118439.88;5053642;28;20147;-71
2023/04/15 01:07:47;;;;;;;12.52;5.50;;;;;;;-143.48;62.76;118439.88;5051846;28;20095;-72
2023/04/15 01:10:13;;;;;;;10.25;5.53;;;;;;;-143.48;62.89;118439.88;5051764;28;20171;-72
2023/04/15 01:12:38;;;;;;;11.30;5.45;;;;;;;-143.48;63.14;118439.88;5033867;28;20111;-71
2023/04/15 01:15:05;;;;;;;12.93;5.72;;;;;;;-143.48;63.37;118439.88;5051371;28;20032;-72
2023/04/15 01:17:31;;;;;;;11.73;5.57;;;;;;;-143.48;63.96;118439.88;5051951;28;20028;-72
2023/04/15 01:19:57;;;;;;;11.93;6.05;;;;;;;-143.48;63.69;118439.88;5053103;28;20028;-71
2023/04/15 01:22:23;;;;;;;10.00;5.15;;;;;;;-143.48;64.46;118439.88;5038181;28;20416;-71
2023/04/15 01:25:08;;;;;;;9.52;5.80;;;;;;;-143.48;64.20;118439.88;5055653;28;20024;-71
2023/04/15 01:27:34;;;;;;;12.18;5.43;;;;;;;-143.48;64.76;118439.88;5055168;28;20439;-71
2023/04/15 01:30:00;;;;;;;16.23;5.40;;;;;;;-143.48;64.65;118439.88;5055215;28;20028;-71
2023/04/15 01:32:26;;;;;;;8.88;5.40;;;;;;;-143.48;65.37;118439.88;5055067;28;20021;-71
2023/04/15 01:34:51;;;;;;;9.18;5.45;;;;;;;-143.48;65.88;118439.88;5037160;28;20025;-72
2023/04/15 01:37:16;;;;;;;12.95;5.60;;;;;;;-143.48;66.22;118439.88;5055175;28;20477;-71
2023/04/15 01:39:42;;;;;;;13.77;5.70;;;;;;;-143.48;66.89;118439.88;5055297;28;20017;-71
2023/04/15 01:42:07;;;;;;;9.88;5.35;;;;;;;-143.48;67.13;118439.88;5037937;28;20047;-71
2023/04/15 01:44:32;;;;;;;9.43;5.40;;;;;;;-143.48;66.72;118439.88;5038298;28;20814;-71
2023/04/15 01:46:58;;;;;;;12.80;5.93;;;;;;;-143.48;66.58;118439.88;5055591;28;20025;-71
2023/04/15 01:49:23;;;;;;;15.05;5.82;;;;;;;-143.48;67.27;118439.88;5055956;28;20028;-72
2023/04/15 01:51:49;;;;;;;14.15;5.82;;;;;;;-143.48;67.10;118439.88;5039602;28;20023;-71
2023/04/15 01:54:14;;;;;;;9.50;5.50;;;;;;;-143.48;67.50;118439.88;5056072;28;20031;-71
2023/04/15 01:56:39;;;;;;;10.93;5.32;;;;;;;-143.48;66.46;118439.88;5055595;28;20029;-71
2023/04/15 01:59:05;;;;;;;11.55;5.18;;;;;;;-143.48;67.26;118439.88;5055768;28;20025;-72
2023/04/15 02:01:30;;;;;;;11.80;5.50;;;;;;;-143.48;66.91;118439.88;5055622;28;20021;-72
2023/04/15 02:03:56;;;;;;;11.05;5.18;;;;;;;-143.48;67.30;118439.88;5037551;28;20342;-71
2023/04/15 02:06:21;;;;;;;11.75;5.45;;;;;;;-143.48;67.26;118439.88;5037652;28;20025;-71
2023/04/15 02:08:46;;;;;;;10.68;5.68;;;;;;;-143.48;67.47;118439.88;5055343;28;20041;-71
2023/04/15 02:11:12;;;;;;;7.95;5.07;;;;;;;-143.48;67.36;118439.88;5055058;28;20017;-72
2023/04/15 02:13:37;;;;;;;10.45;5.60;;;;;;;-143.48;68.03;118439.88;5055158;28;20377;-72
2023/04/15 02:16:03;;;;;;;14.82;5.97;;;;;;;-143.48;68.52;118439.88;5055087;28;20040;-71
2023/04/15 02:18:28;;;;;;;11.02;5.50;;;;;;;-143.48;69.30;118439.88;5055356;28;20094;-71
2023/04/15 02:20:54;;;;;;;14.70;5.68;;;;;;;-143.48;69.67;118439.88;5055130;28;20021;-71
2023/04/15 02:23:19;;;;;;;12.15;6.00;;;;;;;-143.48;70.14;118439.88;5055101;28;20083;-71
2023/04/15 02:25:46;;;;;;;12.57;5.60;;;;;;;-143.48;70.23;118439.88;5055418;28;20029;-72
2023/04/15 02:28:11;;;;;;;9.80;5.13;;;;;;;-143.48;70.50;118439.88;5037054;28;20017;-71
2023/04/15 02:30:36;;;;;;;11.95;5.80;;;;;;;-143.48;70.45;118439.88;5054918;28;20420;-72
2023/04/15 02:33:02;;;;;;;11.80;5.80;;;;;;;-143.48;70.25;118439.88;5054168;28;20021;-72
2023/04/15 02:35:27;;;;;;;10.23;5.80;;;;;;;-143.48;71.57;118439.88;5056969;28;20396;-71
2023/04/15 02:37:53;;;;;;;9.20;5.57;;;;;;;-143.48;72.45;118439.88;5056455;28;20021;-71
2023/04/15 02:40:18;;;;;;;15.80;6.10;;;;;;;-143.48;72.37;118439.88;5055965;28;20067;-71
2023/04/15 02:42:43;;;;;;;10.27;5.80;;;;;;;-143.48;72.27;118439.88;5054834;28;20045;-71
2023/04/15 02:45:11;;;;;;;8.10;5.53;;;;;;;-143.48;72.76;118439.88;5054992;28;20470;-71
2023/04/15 02:47:36;;;;;;;11.20;5.72;;;;;;;-143.48;73.21;118439.88;5054665;28;20400;-71
2023/04/15 02:50:02;;;;;;;14.15;6.18;;;;;;;-143.48;74.00;118439.88;5054515;28;20029;-71
2023/04/15 02:52:28;;;;;;;9.32;5.53;;;;;;;-143.48;73.54;118439.88;5057080;28;20017;-72
2023/04/15 02:54:59;;;;;;;15.20;5.72;;;;;;;-143.48;74.17;118439.88;5055138;28;20082;-71
2023/04/15 02:57:25;;;;;;;13.40;5.63;;;;;;;-143.48;75.33;118439.88;5054583;28;20033;-71
2023/04/15 02:59:50;;;;;;;10.20;5.57;;;;;;;-143.48;76.01;118439.88;5054888;28;20035;-70
2023/04/15 03:02:15;;;;;;;11.25;5.88;;;;;;;-143.48;75.83;118439.88;5061933;28;20098;-71
2023/04/15 03:04:40;;;;;;;10.50;6.03;;;;;;;-143.48;76.14;118439.88;5038251;28;20028;-71
2023/04/15 03:07:06;;;;;;;11.13;5.90;;;;;;;-143.48;75.94;118439.88;5058825;28;20029;-71
2023/04/15 03:09:31;;;;;;;12.95;6.15;;;;;;;-143.48;77.10;118439.88;5037365;28;20476;-71
2023/04/15 03:11:57;;;;;;;12.05;6.18;;;;;;;-143.48;77.15;118439.88;5054779;28;20024;-71
2023/04/15 03:14:22;;;;;;;10.63;5.60;;;;;;;-143.48;77.41;118439.88;5055115;28;20028;-71
2023/04/15 03:16:49;;;;;;;10.38;5.85;;;;;;;-143.48;77.66;118439.88;5036567;28;20039;-71
2023/04/15 03:19:14;;;;;;;11.40;6.38;;;;;;;-143.48;78.61;118439.88;5036550;28;20052;-72
2023/04/15 03:21:40;;;;;;;11.40;5.78;;;;;;;-143.48;78.15;118439.88;5053689;28;20507;-72
2023/04/15 03:24:05;;;;;;;11.38;5.78;;;;;;;-143.48;78.42;118439.88;5053355;28;20112;-70
2023/04/15 03:26:31;;;;;;;11.68;5.70;;;;;;;-143.48;79.87;118439.88;5053037;28;20021;-71
2023/04/15 03:28:57;;;;;;;12.57;5.80;;;;;;;-143.48;80.15;118439.88;5035724;28;20061;-71
2023/04/15 03:31:23;;;;;;;9.93;6.13;;;;;;;-143.48;80.74;118439.88;5053420;28;20032;-71
2023/04/15 03:33:48;;;;;;;12.43;6.38;;;;;;;-143.48;81.07;118439.88;5053967;28;20029;-72
2023/04/15 03:36:14;;;;;;;10.70;5.57;;;;;;;-143.48;81.29;118439.88;5053535;28;20025;-72
2023/04/15 03:38:40;;;;;;;10.52;5.93;;;;;;;-143.48;81.39;118439.88;5035906;28;20041;-72
2023/04/15 03:41:06;;;;;;;12.57;6.13;;;;;;;-143.48;81.44;118439.88;5053520;28;20013;-70
2023/04/15 03:43:32;;;;;;;9.95;6.13;;;;;;;-143.48;81.70;118439.88;5053245;28;20027;-72
2023/04/15 03:45:57;;;;;;;10.85;5.90;;;;;;;-143.48;81.13;118439.88;5035477;28;20108;-70
2023/04/15 03:48:22;;;;;;;10.45;6.07;;;;;;;-143.48;81.51;118439.88;5053632;28;20033;-71
2023/04/15 03:50:48;;;;;;;15.07;6.70;;;;;;;-143.48;82.32;118439.88;5053223;28;20029;-71
2023/04/15 03:53:14;;;;;;;15.48;6.43;;;;;;;-143.48;82.38;118439.88;5055430;28;20020;-71
2023/04/15 03:55:40;;;;;;;10.40;6.25;;;;;;;-143.48;82.90;118439.88;5053887;28;20100;-71
2023/04/15 03:58:05;;;;;;;12.77;6.78;;;;;;;-143.48;83.79;118439.88;5035591;28;20143;-71
2023/04/15 04:00:31;;;;;;;16.33;6.55;;;;;;;-143.48;83.55;118439.88;5035333;28;20035;-71
2023/04/15 04:02:56;;;;;;;14.05;6.63;;;;;;;-143.48;84.37;118439.88;5035742;28;20021;-71
2023/04/15 04:05:22;;;;;;;14.55;6.63;;;;;;;-143.48;84.05;118439.88;5035706;28;20476;-71
2023/04/15 04:07:47;;;;;;;13.70;6.57;;;;;;;-143.48;83.57;118439.88;5035359;28;20029;-71
2023/04/15 04:10:12;;;;;;;12.98;6.80;;;;;;;-143.48;83.75;118439.88;5035266;28;20033;-70
2023/04/15 04:12:37;;;;;;;15.93;6.50;;;;;;;-143.48;84.22;118439.88;5053009;28;20069;-71
2023/04/15 04:15:04;;;;;;;10.95;6.35;;;;;;;-143.48;83.74;118439.88;5035243;28;20155;-71
2023/04/15 04:17:29;;;;;;;12.48;7.25;;;;;;;-143.48;84.57;118439.88;5053065;28;20033;-71
2023/04/15 04:19:54;;;;;;;13.07;6.80;;;;;;;-143.48;84.92;118439.88;5053000;28;20465;-70
2023/04/15 04:22:23;;;;;;;11.55;6.57;;;;;;;-143.48;85.29;118439.88;5052925;28;20025;-70
2023/04/15 04:24:49;;;;;;;13.52;7.15;;;;;;;-143.48;85.70;118439.88;5052866;28;20143;-71
2023/04/15 04:27:14;;;;;;;11.27;7.22;;;;;;;-143.48;85.67;118439.88;5059381;28;20059;-71
2023/04/15 04:29:40;;;;;;;10.07;6.53;;;;;;;-143.48;85.79;118439.88;5037982;28;20051;-71
2023/04/15 04:32:05;;;;;;;13.95;6.97;;;;;;;-143.48;86.55;118439.88;5054691;28;20050;-70
2023/04/15 04:34:31;;;;;;;11.93;6.88;;;;;;;-143.48;86.61;118439.88;5056342;28;20021;-72
2023/04/15 04:36:57;;;;;;;13.23;6.53;;;;;;;-143.48;86.04;118439.88;5037204;28;20112;-70
2023/04/15 04:39:22;;;;;;;12.85;7.30;;;;;;;-143.48;86.68;118439.88;5055580;28;20029;-70
2023/04/15 04:41:48;;;;;;;9.82;7.28;;;;;;;-143.48;86.72;118439.88;5054590;28;20060;-71
2023/04/15 04:44:13;;;;;;;12.75;6.88;;;;;;;-143.48;86.64;118439.88;5054811;28;20076;-71
2023/04/15 04:46:38;;;;;;;14.90;7.53;;;;;;;-143.48;86.10;118439.88;5053594;28;20025;-71
2023/04/15 04:49:04;;;;;;;12.45;6.95;;;;;;;-143.48;86.39;118439.88;5053631;28;20047;-71
2023/04/15 04:51:30;;;;;;;14.75;6.90;;;;;;;-143.48;86.83;118439.88;5054120;28;20110;-70
2023/04/15 04:53:56;;;;;;;12.57;7.25;;;;;;;-143.48;86.96;118439.88;5056097;28;20094;-70
2023/04/15 04:56:21;;;;;;;10.93;6.40;;;;;;;-143.48;87.26;118439.88;5059356;28;20472;-71
2023/04/15 04:58:46;;;;;;;17.73;7.13;;;;;;;-143.48;87.10;118439.88;5057672;28;20060;-71
2023/04/15 05:01:12;;;;;;;19.60;7.40;;;;;;;-143.48;87.09;118439.88;5039593;28;20021;-71
2023/04/15 05:03:37;;;;;;;13.23;7.35;;;;;;;-143.48;86.77;118439.88;5039655;28;20103;-71
2023/04/15 05:06:05;;;;;;;14.23;7.03;;;;;;;-143.48;86.08;118439.88;5045477;28;20052;-71
2023/04/15 05:08:30;;;;;;;15.77;7.65;;;;;;;-143.48;87.75;118439.88;5058706;28;20028;-70
2023/04/15 05:10:56;;;;;;;10.07;6.70;;;;;;;-143.48;87.42;118439.88;5041268;28;20021;-70
2023/04/15 05:13:21;;;;;;;15.95;7.80;;;;;;;-143.48;87.60;118439.88;5039752;28;20025;-70
2023/04/15 05:15:46;;;;;;;10.65;7.25;;;;;;;-143.48;87.46;118439.88;5057564;28;20032;-71
2023/04/15 05:18:12;;;;;;;12.77;7.25;;;;;;;-143.48;87.31;118439.88;5058526;28;20032;-69
2023/04/15 05:20:37;;;;;;;14.73;7.18;;;;;;;-143.48;87.16;118439.88;5039967;28;20025;-70
2023/04/15 05:23:02;;;;;;;11.90;7.05;;;;;;;-143.48;87.07;118439.88;5039744;28;20518;-71
2023/04/15 05:25:28;;;;;;;13.48;7.72;;;;;;;-143.48;86.86;118439.88;5039537;28;20499;-71
2023/04/15 05:27:53;;;;;;;12.98;7.18;;;;;;;-143.48;87.15;118439.88;5039560;28;20040;-71
2023/04/15 05:30:18;;;;;;;12.55;7.47;;;;;;;-143.48;87.60;118439.88;5039300;28;20029;-71
2023/04/15 05:32:44;;;;;;;13.05;7.40;;;;;;;-143.48;87.63;118439.88;5021770;28;20036;-71
2023/04/15 05:35:09;;;;;;;13.00;7.40;;;;;;;-143.48;87.36;118439.88;5038294;28;20440;-71
2023/04/15 05:37:35;;;;;;;13.35;7.90;;;;;;;-143.48;87.83;118439.88;5055723;28;20073;-71
2023/04/15 05:40:00;;;;;;;13.38;8.45;;;;;;;-143.48;88.22;118439.88;5037988;28;20107;-71
2023/04/15 05:42:25;;;;;;;17.13;9.00;;;;;;;-143.48;87.96;118439.88;5055766;28;20477;-71
2023/04/15 05:44:51;;;;;;;13.88;7.88;;;;;;;-143.48;87.57;118439.88;5061928;28;20016;-71
2023/04/15 05:47:16;;;;;;;15.00;7.97;;;;;;;-143.48;87.64;118439.88;5055998;28;20028;-70
2023/04/15 05:49:41;;;;;;;14.65;7.82;;;;;;;-143.48;86.84;118439.88;5055772;28;20077;-70
2023/04/15 05:52:06;;;;;;;12.35;8.02;;;;;;;-143.48;87.72;118439.88;5055551;28;20476;-71
2023/04/15 05:54:32;;;;;;;18.88;8.40;;;;;;;-143.48;87.96;118439.88;5039977;28;20029;-71
2023/04/15 05:56:57;;;;;;;12.75;8.02;;;;;;;-143.48;87.55;118439.88;5037959;28;20021;-71
2023/04/15 05:59:23;;;;;;;12.65;8.45;;;;;;;-143.48;87.55;118439.88;5037818;28;20087;-71
2023/04/15 06:01:49;;;;;;;15.73;8.48;;;;;;;-143.48;87.71;118439.88;5055490;28;20013;-71
2023/04/15 06:04:14;;;;;;;12.98;8.75;;;;;;;-143.48;87.92;118439.88;5055280;28;20108;-71
2023/04/15 06:06:40;;;;;;;16.42;8.65;;;;;;;-143.48;87.41;118439.88;5055483;28;20104;-71
2023/04/15 06:09:05;;;;;;;16.08;9.10;;;;;;;-143.48;84.70;118439.88;5055256;28;20027;-70
2023/04/15 06:11:30;;;;;;;14.43;8.18;;;;;;;-143.48;81.85;118439.88;5055355;28;20443;-71
2023/04/15 06:13:56;;;;;;;13.98;8.40;;;;;;;-143.48;81.87;118439.88;5055139;28;20017;-70
2023/04/15 06:16:22;;;;;;;13.90;8.52;;;;;;;-143.48;83.55;118439.88;5037503;28;20056;-70
2023/04/15 06:18:47;;;;;;;13.80;8.43;;;;;;;-143.48;82.47;118439.88;5054947;28;20025;-70
2023/04/15 06:21:12;;;;;;;18.25;8.73;;;;;;;-143.48;84.29;118439.88;5054932;28;20036;-70
2023/04/15 06:23:40;;;;;;;15.07;9.00;;;;;;;-143.48;83.17;118439.88;5055056;28;20380;-70
2023/04/15 06:26:05;;;;;;;12.00;8.20;;;;;;;-143.48;83.34;118439.88;5037112;28;20024;-70
2023/04/15 06:28:31;;;;;;;12.05;8.60;;;;;;;-143.48;79.32;118439.88;5037280;28;20124;-70
2023/04/15 06:30:56;;;;;;;14.50;8.35;;;;;;;-143.48;73.16;118439.88;5055113;28;20025;-71
2023/04/15 06:33:21;;;;;;;12.52;7.90;;;;;;;-143.48;69.62;118439.88;5055092;28;20017;-71
2023/04/15 06:35:48;;;;;;;15.80;8.23;;;;;;;-143.48;65.98;118439.88;5037285;28;20024;-71
2023/04/15 06:38:13;;;;;;;12.40;8.07;;;;;;;-143.48;66.20;118439.88;5054876;28;20040;-71
2023/04/15 06:40:39;;;;;;;10.23;7.90;;;;;;;-143.48;61.39;118439.88;5055059;28;20021;-71
2023/04/15 06:43:05;;;;;;;11.07;7.53;;;;;;;-143.48;60.64;118439.88;5040835;28;20045;-71
2023/04/15 06:45:30;;;;;;;11.77;7.22;;;;;;;-143.48;60.78;118439.88;5058500;28;20484;-72
2023/04/15 06:47:56;;;;;;;11.50;7.50;;;;;;;-143.48;57.26;118439.88;5062494;28;20031;-71
2023/04/15 06:50:22;;;;;;;9.63;7.30;;;;;;;-143.48;56.43;118439.88;5046641;28;20049;-69
2023/04/15 06:52:47;;;;;;;11.90;7.50;;;;;;;-143.48;52.10;118439.88;5054422;28;20444;-70
2023/04/15 06:55:13;;;;;;;12.25;6.80;;;;;;;-143.48;54.89;118439.88;5057311;28;20020;-71
2023/04/15 06:57:38;;;;;;;11.05;6.72;;;;;;;-143.48;51.75;118439.88;5050144;28;20481;-71
2023/04/15 07:00:04;;;;;;;9.27;6.20;;;;;;;-143.48;50.34;118439.88;5039526;28;20021;-71
2023/04/15 07:02:30;;;;;;;9.00;6.80;;;;;;;-143.48;53.42;118439.88;5050164;28;20545;-71
2023/04/15 07:04:55;;;;;;;8.93;6.43;;;;;;;-143.48;46.88;118439.88;5074452;28;20108;-71
2023/04/15 07:07:21;;;;;;;8.38;6.32;;;;;;;-143.48;47.39;118439.88;5056281;28;20028;-71
2023/04/15 07:09:46;;;;;;;8.10;6.00;;;;;;;-143.48;47.35;118439.88;5053823;28;20083;-71
2023/04/15 07:12:12;;;;;;;11.48;5.82;;;;;;;-143.48;45.45;118439.88;5053823;28;20053;-70
2023/04/15 07:14:37;;;;;;;8.00;5.85;;;;;;;-143.48;46.89;118439.88;5056405;28;20045;-72
2023/04/15 07:17:02;;;;;;;10.52;5.85;;;;;;;-143.48;44.33;118439.88;5056239;28;20100;-71
2023/04/15 07:19:27;;;;;;;7.97;5.43;;;;;;;-143.48;45.96;118439.88;5052875;28;20029;-72
2023/04/15 07:21:53;;;;;;;8.00;6.00;;;;;;;-143.48;47.05;118439.88;5053706;28;20086;-71
2023/04/15 07:24:19;;;;;;;7.82;5.95;;;;;;;-143.48;47.02;118439.88;5053507;28;20372;-70
2023/04/15 07:26:45;;;;;;;9.35;5.70;;;;;;;-143.48;46.28;118439.88;5066958;28;20029;-71
2023/04/15 07:29:10;;;;;;;8.60;6.05;;;;;;;-143.48;46.57;118439.88;5071328;28;20044;-71
2023/04/15 07:31:36;;;;;;;8.05;6.35;;;;;;;-143.48;47.23;118439.88;5069439;28;20076;-71
2023/04/15 07:34:03;;;;;;;8.50;6.35;;;;;;;-143.48;49.47;118439.88;5051097;28;20013;-72
2023/04/15 07:36:29;;;;;;;6.43;5.43;;;;;;;-143.48;47.19;118439.88;5066125;28;20104;-70
2023/04/15 07:38:54;;;;;;;9.77;6.30;;;;;;;-143.48;44.97;118439.88;5058761;28;20043;-71
2023/04/15 07:41:20;;;;;;;7.90;6.07;;;;;;;-143.48;44.58;118439.88;5055469;28;20107;-72
2023/04/15 07:43:46;;;;;;;9.25;5.88;;;;;;;-143.48;44.83;118439.88;5053829;28;20058;-70
2023/04/15 07:46:11;;;;;;;7.38;5.65;;;;;;;-143.48;46.77;118439.88;5062270;28;20804;-72
2023/04/15 07:48:38;;;;;;;7.20;5.53;;;;;;;-143.48;45.09;118439.88;5039244;28;20064;-71
2023/04/15 07:51:04;;;;;;;8.75;5.60;;;;;;;-143.48;44.69;118439.88;5057812;28;20025;-71
2023/04/15 07:53:29;;;;;;;8.80;5.38;;;;;;;-143.48;43.89;118439.88;5053670;28;20029;-71
2023/04/15 07:55:54;;;;;;;9.40;5.70;;;;;;;-143.48;44.41;118439.88;5058693;28;20027;-71
2023/04/15 07:58:20;;;;;;;11.70;5.50;;;;;;;-143.48;46.22;118439.88;5056205;28;20021;-71
2023/04/15 08:00:45;;;;;;;7.57;5.82;;;;;;;-143.48;45.74;118439.88;5059236;28;20025;-71
2023/04/15 08:03:11;;;;;;;8.98;5.53;;;;;;;-143.48;45.11;118439.88;5054794;28;20108;-72
2023/04/15 08:05:36;;;;;;;7.78;5.68;;;;;;;-143.48;46.99;118439.88;5054046;28;20024;-72
2023/04/15 08:08:01;;;;;;;11.05;5.90;;;;;;;-143.48;45.71;118439.88;5054618;28;20028;-71
2023/04/15 08:10:28;;;;;;;8.73;6.03;;;;;;;-143.48;46.11;118439.88;5053824;28;20151;-71
2023/04/15 08:12:53;;;;;;;9.77;6.18;;;;;;;-143.48;46.17;118439.88;5053111;28;20024;-71
2023/04/15 08:15:19;;;;;;;9.95;6.10;;;;;;;-143.48;45.42;118439.88;5053673;28;20028;-70
2023/04/15 08:17:45;;;;;;;10.77;6.38;;;;;;;-143.48;45.64;118439.88;5055055;28;20029;-70
2023/04/15 08:20:11;;;;;;;9.45;6.05;;;;;;;-143.48;43.38;118439.88;5055017;28;20143;-71
2023/04/15 08:22:36;;;;;;;12.27;5.80;;;;;;;-143.48;41.83;118439.88;5055060;28;20074;-71
2023/04/15 08:25:02;;;;;;;9.75;5.72;;;;;;;-143.48;45.24;118439.88;5035198;28;20031;-71
2023/04/15 08:27:27;;;;;;;7.82;5.68;;;;;;;-143.48;46.39;118439.88;5055206;28;20443;-70
2023/04/15 08:29:53;;;;;;;9.75;5.75;;;;;;;-143.48;44.27;118439.88;5052549;28;20033;-70
2023/04/15 08:32:19;;;;;;;6.95;5.05;;;;;;;-143.48;42.25;118439.88;5035693;28;20852;-70
2023/04/15 08:34:44;;;;;;;7.18;4.93;;;;;;;-143.48;42.32;118439.88;5034878;28;20032;-73
2023/04/15 08:37:09;;;;;;;7.68;4.63;;;;;;;-143.48;44.00;118439.88;5052878;28;20025;-72
2023/04/15 08:39:35;;;;;;;6.78;4.35;;;;;;;-143.48;45.02;118439.88;5035035;28;20028;-70
2023/04/15 08:42:02;;;;;;;7.20;4.50;;;;;;;-143.48;45.89;118439.88;5052628;28;20057;-71
2023/04/15 08:44:33;;;;;;;7.07;4.63;;;;;;;-143.48;45.02;118439.88;5053016;28;20048;-71
2023/04/15 08:47:06;;;;;;;10.13;4.55;;;;;;;-143.48;44.75;118439.88;5053307;28;20408;-71
2023/04/15 08:49:31;;;;;;;6.45;4.68;;;;;;;-143.48;45.66;118439.88;5052791;28;20036;-71
2023/04/15 08:51:58;;;;;;;8.05;4.57;;;;;;;-143.48;43.08;118439.88;5053017;28;20021;-71
2023/04/15 08:54:24;;;;;;;5.85;3.60;;;;;;;-143.48;43.88;118439.88;5052783;28;20396;-71
2023/04/15 08:56:49;;;;;;;7.82;3.80;;;;;;;-143.48;46.22;118439.88;5034666;28;20092;-71
2023/04/15 08:59:18;;;;;;;7.65;4.10;;;;;;;-143.48;43.30;118439.88;5052760;28;20025;-71
2023/04/15 09:01:44;;;;;;;10.25;3.95;;;;;;;-143.48;44.97;118439.88;5035276;28;20025;-72
2023/04/15 09:04:11;;;;;;;7.35;4.25;;;;;;;-143.48;43.87;118439.88;5052891;28;20548;-71
2023/04/15 09:06:38;;;;;;;8.45;4.47;;;;;;;-143.48;43.30;118439.88;5034796;28;20095;-70
2023/04/15 09:09:04;;;;;;;8.32;4.40;;;;;;;-143.48;42.15;118439.88;5052873;28;20041;-72
2023/04/15 09:11:30;;;;;;;9.93;5.00;;;;;;;-143.48;40.96;118439.88;5052705;28;20029;-71
2023/04/15 09:13:55;;;;;;;9.88;4.60;;;;;;;-143.48;43.48;118439.88;5052610;28;20040;-73
2023/04/15 09:16:21;;;;;;;9.10;4.75;;;;;;;-143.48;43.40;118439.88;5053089;28;20032;-70
2023/04/15 09:18:46;;;;;;;6.97;4.50;;;;;;;-143.48;45.60;118439.88;5052523;28;20310;-72
2023/04/15 09:21:14;;;;;;;8.55;4.40;;;;;;;-143.48;43.68;118439.88;5052442;28;20157;-72
2023/04/15 09:23:52;;;;;;;7.25;4.22;;;;;;;-143.48;45.00;118439.88;5034506;28;20419;-71
2023/04/15 09:26:17;;;;;;;7.30;3.60;;;;;;;-143.48;44.99;118439.88;5053225;28;20399;-71
2023/04/15 09:28:43;;;;;;;6.88;3.60;;;;;;;-143.48;45.26;118439.88;5035293;28;20036;-71
2023/04/15 09:31:09;;;;;;;5.90;2.83;;;;;;;-143.48;44.03;118439.88;5035852;28;20497;-71
2023/04/15 09:33:35;;;;;;;12.13;2.30;;;;;;;-143.48;43.98;118439.88;5054254;28;20097;-71
2023/04/15 09:36:03;;;;;;;11.38;2.90;;;;;;;-143.48;43.67;118439.88;5036043;28;20468;-71
2023/04/15 09:38:29;;;;;;;3.88;2.40;;;;;;;-143.48;45.35;118439.88;5053701;28;20095;-72
2023/04/15 09:40:54;;;;;;;3.08;2.30;;;;;;;-143.48;43.60;118439.88;5054746;28;20021;-74
2023/04/15 09:43:20;;;;;;;5.30;2.60;;;;;;;-143.48;44.54;118439.88;5057146;28;20101;-74
2023/04/15 09:45:51;;;;;;;6.18;2.70;;;;;;;-143.48;45.18;118439.88;5058249;28;20366;-74
2023/04/15 09:48:22;;;;;;;4.05;2.70;;;;;;;-143.48;42.74;118439.88;5058737;28;20078;-74
2023/04/15 09:50:48;;;;;;;4.97;2.65;;;;;;;-143.48;42.64;118439.88;5058104;28;20021;-74
2023/04/15 09:53:21;;;;;;;4.30;2.63;;;;;;;-143.48;43.25;118439.88;5056835;28;20037;-73
2023/04/15 09:55:55;;;;;;;6.35;3.10;;;;;;;-143.48;43.74;118439.88;5039439;28;20036;-74
2023/04/15 09:58:29;;;;;;;5.72;2.80;;;;;;;-143.48;45.17;118439.88;5056756;28;20044;-73
2023/04/15 10:00:56;;;;;;;5.35;2.88;;;;;;;-143.48;43.81;118439.88;5038724;28;20021;-74
2023/04/15 10:03:30;;;;;;;6.30;3.10;;;;;;;-143.48;44.01;118439.88;5059147;28;20107;-73
2023/04/15 10:05:57;;;;;;;4.10;2.90;;;;;;;-143.48;43.27;118439.88;5068480;28;20076;-74
2023/04/15 10:08:25;;;;;;;7.50;2.97;;;;;;;-143.48;43.66;118439.88;5077579;28;20081;-73
2023/04/15 10:10:51;;;;;;;3.97;2.70;;;;;;;-143.48;43.56;118439.88;5071591;28;20029;-73
2023/04/15 10:13:23;;;;;;;5.75;3.15;;;;;;;-143.48;45.31;118439.88;5053417;28;20025;-75
2023/04/15 10:15:57;;;;;;;4.63;3.40;;;;;;;-143.48;43.09;118439.88;5065532;28;20522;-74
2023/04/15 10:18:25;;;;;;;5.53;3.42;;;;;;;-143.48;43.35;118439.88;5049280;28;20021;-72
2023/04/15 10:20:51;;;;;;;5.07;3.53;;;;;;;-143.48;46.73;118439.88;5059958;28;20021;-74
2023/04/15 10:23:17;;;;;;;7.57;3.85;;;;;;;-143.48;46.32;118439.88;5055300;28;20530;-74
2023/04/15 10:25:44;;;;;;;5.43;3.78;;;;;;;-143.48;44.49;118439.88;5056115;28;20017;-74
2023/04/15 10:28:10;;;;;;;4.95;3.88;;;;;;;-143.48;46.64;118439.88;5061658;28;20032;-72
2023/04/15 10:30:36;;;;;;;5.47;4.32;;;;;;;-143.48;45.00;118439.88;5054251;28;20035;-72
2023/04/15 10:33:02;;;;;;;6.60;3.90;;;;;;;-143.48;46.83;118439.88;5069053;28;20485;-71
2023/04/15 10:35:29;;;;;;;5.40;3.90;;;;;;;-143.48;46.89;118439.88;5055111;28;20028;-73
2023/04/15 10:37:55;;;;;;;5.78;3.70;;;;;;;-143.48;46.38;118439.88;5054863;28;20036;-73
2023/04/15 10:40:30;;;;;;;6.78;4.10;;;;;;;-143.48;47.63;118439.88;5055407;28;20477;-73
2023/04/15 10:43:01;;;;;;;6.85;3.92;;;;;;;-143.48;47.35;118439.88;5053597;28;20049;-74
2023/04/15 10:45:30;;;;;;;5.00;3.60;;;;;;;-143.48;46.75;118439.88;5054756;28;20537;-73
2023/04/15 10:47:57;;;;;;;6.85;3.65;;;;;;;-143.48;45.07;118439.88;5054552;28;20043;-74
2023/04/15 10:50:25;;;;;;;6.10;3.50;;;;;;;-143.48;45.26;118439.88;5054395;28;20042;-73
2023/04/15 10:52:51;;;;;;;7.07;3.88;;;;;;;-143.48;47.15;118439.88;5053465;28;20020;-73
2023/04/15 10:55:23;;;;;;;7.30;3.90;;;;;;;-143.48;46.83;118439.88;5053894;28;20036;-73
2023/04/15 10:57:59;;;;;;;7.65;3.92;;;;;;;-143.48;47.52;118439.88;5054412;28;20024;-73
2023/04/15 11:00:27;;;;;;;6.15;3.47;;;;;;;-143.48;48.14;118439.88;5054989;28;20021;-72